עמוד ראשי
METAR-TAF:

METAR-TAF

שדות תעופה :

סנטה קלרה, קובה

קו רוחב: 22-29-32N, קו אורך: 079-56-37W, גובה: 103מטר

תצפית מזג אוויר נוכחית

הדו"ח נערך לפני 1 שעות ו 12דקות, בשעה 07:50 UTC
רוח רגועה
טמפרטורת 24 צלסיוס
לחות 83%
לחץ 1015 hPa
ראות: 9000מטר

METAR: MUSC 270750Z 00000KT 9000 NSC 24/21 Q1015

זמן: 05:02 (09:02 UTC)

תחזית

הדו"ח נערך לפני 4 שעות ו 2דקות, בשעה 05:00 UTC
תחזית בתוקף מ 27 ב 06 UTC עד 28 ב 06 UTC
רוח 4קשר עם כיוונים משתנים
ראות: 9000מטר
עננים פזורים בגובה 2000רגל
זמנית מ -
27 ב 18 UTC עד 27 ב 24 UTC
מעט עננים בגובה 1800רגל , קומולונימבוס.
עננים בינוניים בגובה 2000רגל

TAF: MUSC 270500Z 2706/2806 VRB04KT 9000 SCT020 TEMPO 2718/2724 FEW018CB BKN020

תצפיות ותחזיות מזג אוויר לגבי יותר מ- 4,000 שדות תעופה ברחבי העולם. דוחות METAR ו- TAF.

התחנות הזמינות מסומנות בנקודות צהובות ואדומות על גבי המפה.

העבר את העכבר לנקודה הצבעונית על מנת לראות את שם התחנה.

לאחר מכן, לחץ כדי לראות את תוכן ואת תחזיות מזג האוויר.

כדי לשנות את המפה: לחץ על הכפתורים הירוקים עם הפלוס השחור כדי להתקרב; על הכפתור הירוק עם המקף כדי להתרחק; או בחיצים הירוקים למפות סמוכות.


METAR-TAF: